createdAt,value
2022-08-28T00:02:06.517Z,74797.34
2022-08-28T00:04:34.681Z,74801.41
2022-08-28T00:07:02.297Z,74807.47
2022-08-28T00:09:29.574Z,74815.59
2022-08-28T00:11:56.979Z,74817.63
2022-08-28T00:14:24.602Z,74821.66
2022-08-28T00:16:54.433Z,74833.81
2022-08-28T00:19:24.043Z,74841.94
2022-08-28T00:21:52.221Z,74841.94
2022-08-28T00:24:19.244Z,74854.09
2022-08-28T00:27:05.434Z,74852.06
2022-08-28T00:29:32.769Z,74858.13
2022-08-28T00:32:00.359Z,74868.25
2022-08-28T00:34:33.068Z,74866.25
2022-08-28T00:37:01.783Z,74878.41
2022-08-28T00:39:29.082Z,74878.41
2022-08-28T00:41:58.272Z,74878.41
2022-08-28T00:44:28.793Z,74878.41
2022-08-28T00:46:57.494Z,74878.41
2022-08-28T00:49:28.215Z,74882.44
2022-08-28T00:52:08.213Z,74888.53
2022-08-28T00:54:58.937Z,74886.50
2022-08-28T00:57:36.330Z,74890.56
2022-08-28T01:00:08.021Z,74902.72
2022-08-28T01:02:35.416Z,74894.59
2022-08-28T01:05:02.421Z,74894.59
2022-08-28T01:07:29.706Z,74910.81
2022-08-28T01:09:57.254Z,74910.81
2022-08-28T01:12:28.514Z,74918.91
2022-08-28T01:15:01.264Z,74927.03
2022-08-28T01:17:33.123Z,74927.03
2022-08-28T01:20:06.391Z,74935.13
2022-08-28T01:22:38.756Z,74941.19
2022-08-28T01:25:13.268Z,74951.34
2022-08-28T01:27:44.265Z,74957.41
2022-08-28T01:30:14.299Z,74959.44
2022-08-28T01:32:45.632Z,74969.56
2022-08-28T01:35:23.222Z,74979.69
2022-08-28T01:37:50.668Z,74975.66
2022-08-28T01:40:25.662Z,74991.84
2022-08-28T01:42:52.936Z,74989.84
2022-08-28T01:45:24.313Z,74995.91
2022-08-28T01:47:51.313Z,75004.00
2022-08-28T01:50:20.723Z,75014.16
2022-08-28T01:52:47.573Z,75020.22
2022-08-28T01:55:21.616Z,75024.28
2022-08-28T01:57:53.860Z,75032.38
2022-08-28T02:00:27.694Z,75036.44
2022-08-28T02:02:56.896Z,75036.44
2022-08-28T02:05:25.790Z,75040.47
2022-08-28T02:07:53.036Z,75048.59
2022-08-28T02:10:24.696Z,75048.59
2022-08-28T02:12:52.124Z,75048.59
2022-08-28T02:15:23.650Z,75052.66
2022-08-28T02:17:51.883Z,75052.66
2022-08-28T02:20:19.891Z,75050.63
2022-08-28T02:22:47.375Z,75056.69
2022-08-28T02:25:15.378Z,75064.81
2022-08-28T02:27:43.217Z,75068.84
2022-08-28T02:30:12.572Z,75085.06
2022-08-28T02:32:39.918Z,75089.13
2022-08-28T02:35:12.066Z,75095.19
2022-08-28T02:37:40.172Z,75101.28
2022-08-28T02:40:08.233Z,75109.38
2022-08-28T02:42:35.407Z,75121.53
2022-08-28T02:45:02.729Z,75121.53
2022-08-28T02:47:30.039Z,75129.63
2022-08-28T02:49:57.091Z,75133.69
2022-08-28T02:52:24.655Z,75137.75
2022-08-28T02:54:51.923Z,75141.78
2022-08-28T02:57:19.984Z,75143.81
2022-08-28T02:59:47.860Z,75141.78
2022-08-28T03:02:15.058Z,75137.75
2022-08-28T03:04:43.693Z,75141.78
2022-08-28T03:07:15.208Z,75145.84
2022-08-28T03:09:44.251Z,75141.78
2022-08-28T03:12:13.478Z,75137.75
2022-08-28T03:14:40.403Z,75133.69
2022-08-28T03:17:07.831Z,75137.75
2022-08-28T03:19:35.370Z,75141.78
2022-08-28T03:22:02.162Z,75135.72
2022-08-28T03:24:29.212Z,75137.75
2022-08-28T03:26:56.462Z,75151.94
2022-08-28T03:29:23.451Z,75133.69
2022-08-28T03:31:51.077Z,75139.78
2022-08-28T03:34:17.925Z,75135.72
2022-08-28T03:36:44.845Z,75133.69
2022-08-28T03:39:12.199Z,75133.69
2022-08-28T03:41:40.525Z,75143.81
2022-08-28T03:44:07.863Z,75143.81
2022-08-28T03:46:35.759Z,75149.91
2022-08-28T03:49:04.415Z,75147.88
2022-08-28T03:51:34.228Z,75149.91
2022-08-28T03:54:02.663Z,75145.84
2022-08-28T03:56:30.943Z,75149.91
2022-08-28T03:59:01.150Z,75153.94
2022-08-28T04:01:28.815Z,75151.94
2022-08-28T04:03:56.303Z,75155.97
2022-08-28T04:06:23.913Z,75149.91
2022-08-28T04:08:51.147Z,75147.88
2022-08-28T04:11:18.910Z,75153.94
2022-08-28T04:13:46.192Z,75162.06
2022-08-28T04:16:18.102Z,75153.94
2022-08-28T04:18:48.057Z,75153.94
2022-08-28T04:21:23.716Z,75149.91
2022-08-28T04:23:51.387Z,75153.94
2022-08-28T04:26:22.098Z,75153.94
2022-08-28T04:28:49.901Z,75162.06
2022-08-28T04:31:20.057Z,75170.16
2022-08-28T04:34:05.032Z,75186.38
2022-08-28T04:36:33.830Z,75184.34
2022-08-28T04:39:01.627Z,75178.28
2022-08-28T04:41:28.893Z,75162.06
2022-08-28T04:43:57.498Z,75145.84
2022-08-28T04:46:25.343Z,75135.72
2022-08-28T04:48:52.241Z,75129.63
2022-08-28T04:51:20.616Z,75129.63
2022-08-28T04:53:47.509Z,75125.59
2022-08-28T04:56:15.685Z,75117.47
2022-08-28T04:58:43.824Z,75113.44
2022-08-28T05:01:18.962Z,75101.28
2022-08-28T05:03:50.517Z,75089.13
2022-08-28T05:06:21.821Z,75076.97
2022-08-28T05:08:49.463Z,75060.75
2022-08-28T05:11:33.339Z,75044.53
2022-08-28T05:14:05.691Z,75036.44
2022-08-28T05:16:39.887Z,75024.28
2022-08-28T05:19:07.143Z,75010.09
2022-08-28T05:21:34.376Z,74995.91
2022-08-28T05:24:01.512Z,74983.75
2022-08-28T05:26:29.962Z,74975.66
2022-08-28T05:28:57.967Z,74963.50
2022-08-28T05:31:25.790Z,74955.38
2022-08-28T05:33:53.759Z,74949.31
2022-08-28T05:36:23.340Z,74951.34
2022-08-28T05:38:57.270Z,74963.50
2022-08-28T05:41:30.201Z,74957.41
2022-08-28T05:44:02.757Z,74955.38
2022-08-28T05:46:31.095Z,74945.25
2022-08-28T05:49:05.625Z,74947.28
2022-08-28T05:51:36.359Z,74939.19
2022-08-28T05:54:03.993Z,74943.22
2022-08-28T05:56:35.133Z,74947.28
2022-08-28T05:59:04.464Z,74943.22
2022-08-28T06:01:34.066Z,74939.19
2022-08-28T06:04:03.677Z,74939.19
2022-08-28T06:06:38.036Z,74927.03
2022-08-28T06:09:12.014Z,74914.88
2022-08-28T06:11:44.630Z,74906.75
2022-08-28T06:14:17.456Z,74906.75
2022-08-28T06:16:50.840Z,74890.56
2022-08-28T06:19:18.442Z,74884.47
2022-08-28T06:21:48.097Z,74874.34
2022-08-28T06:24:15.521Z,74866.25
2022-08-28T06:26:42.395Z,74852.06
2022-08-28T06:29:11.742Z,74841.94
2022-08-28T06:31:40.231Z,74833.81
2022-08-28T06:34:09.026Z,74825.72
2022-08-28T06:36:41.046Z,74821.66
2022-08-28T06:39:10.191Z,74817.63
2022-08-28T06:41:43.051Z,74817.63
2022-08-28T06:44:13.903Z,74811.53
2022-08-28T06:46:42.059Z,74793.31
2022-08-28T06:49:10.009Z,74781.16
2022-08-28T06:51:37.279Z,74773.03
2022-08-28T06:54:04.951Z,74760.88
2022-08-28T06:56:33.389Z,74752.78
2022-08-28T06:59:00.734Z,74740.63
2022-08-28T07:01:34.864Z,74732.53
2022-08-28T07:04:06.637Z,74716.31
2022-08-28T07:06:34.618Z,74708.22
2022-08-28T07:09:02.822Z,74704.16
2022-08-28T07:11:32.203Z,74681.88
2022-08-28T07:13:59.784Z,74671.75
2022-08-28T07:16:30.014Z,74667.69
2022-08-28T07:18:57.598Z,74663.63
2022-08-28T07:21:24.485Z,74651.47
2022-08-28T07:23:51.702Z,74651.47
2022-08-28T07:26:23.391Z,74639.31
2022-08-28T07:28:52.716Z,74623.13
2022-08-28T07:31:37.880Z,74615.00
2022-08-28T07:34:05.218Z,74604.88
2022-08-28T07:36:32.417Z,74594.75
2022-08-28T07:39:00.204Z,74586.66
2022-08-28T07:41:32.861Z,74572.47
2022-08-28T07:44:19.116Z,74558.28
2022-08-28T07:46:46.713Z,74550.19
2022-08-28T07:49:17.255Z,74546.13
2022-08-28T07:51:46.891Z,74538.03
2022-08-28T07:54:17.796Z,74533.97
2022-08-28T07:56:45.919Z,74529.94
2022-08-28T07:59:16.699Z,74521.81
2022-08-28T08:01:47.000Z,74505.63
2022-08-28T08:04:16.315Z,74501.56
2022-08-28T08:06:44.900Z,74493.47
2022-08-28T08:09:16.222Z,74477.25
2022-08-28T08:11:43.724Z,74465.09
2022-08-28T08:14:12.283Z,74448.91
2022-08-28T08:16:43.624Z,74440.78
2022-08-28T08:19:15.319Z,74424.59
2022-08-28T08:21:43.360Z,74418.50
2022-08-28T08:24:12.236Z,74408.38
2022-08-28T08:26:59.431Z,74400.28
2022-08-28T08:29:35.887Z,74392.16
2022-08-28T08:32:08.170Z,74384.06
2022-08-28T08:34:40.735Z,74367.84
2022-08-28T08:37:08.706Z,74343.56
2022-08-28T08:39:37.220Z,74335.44
2022-08-28T08:42:10.437Z,74323.28
2022-08-28T08:44:43.701Z,74319.25
2022-08-28T08:47:29.402Z,74319.25
2022-08-28T08:50:00.398Z,74315.19
2022-08-28T08:52:27.680Z,74307.09
2022-08-28T08:55:23.613Z,74303.03
2022-08-28T08:58:07.734Z,74298.97
2022-08-28T09:00:57.503Z,74278.72
2022-08-28T09:03:47.227Z,74270.63
2022-08-28T09:06:26.183Z,74246.31
2022-08-28T09:08:58.914Z,74226.06
2022-08-28T09:11:34.509Z,74217.94
2022-08-28T09:14:19.563Z,74193.66
2022-08-28T09:16:48.048Z,74189.59
2022-08-28T09:19:19.692Z,74175.41
2022-08-28T09:21:48.165Z,74169.34
2022-08-28T09:24:28.515Z,74165.28
2022-08-28T09:27:01.130Z,74153.13
2022-08-28T09:29:43.322Z,74161.22
2022-08-28T09:32:16.563Z,74151.09
2022-08-28T09:35:09.577Z,74149.09
2022-08-28T09:37:37.494Z,74145.03
2022-08-28T09:40:13.600Z,74134.91
2022-08-28T09:42:59.626Z,74130.84
2022-08-28T09:45:29.275Z,74120.72
2022-08-28T09:48:00.775Z,74104.50
2022-08-28T09:50:41.761Z,74100.47
2022-08-28T09:53:09.078Z,74102.50
2022-08-28T09:55:46.254Z,74104.50
2022-08-28T09:58:13.939Z,74100.47
2022-08-28T10:00:51.406Z,74100.47
2022-08-28T10:03:26.144Z,74092.38
2022-08-28T10:06:00.349Z,74092.38
2022-08-28T10:09:06.672Z,74084.25
2022-08-28T10:11:44.582Z,74064.00
2022-08-28T10:14:33.455Z,74031.59
2022-08-28T10:17:41.404Z,74031.59
2022-08-28T10:20:19.964Z,74031.59
2022-08-28T10:22:56.242Z,74027.53
2022-08-28T10:25:36.056Z,74023.50
2022-08-28T10:28:44.844Z,74019.44
2022-08-28T10:31:27.296Z,74015.38
2022-08-28T10:34:36.711Z,73999.19
2022-08-28T10:37:15.622Z,73995.13
2022-08-28T10:39:58.952Z,73989.06
2022-08-28T10:42:35.906Z,73987.03
2022-08-28T10:45:06.900Z,73987.03
2022-08-28T10:47:38.343Z,73987.03
2022-08-28T10:50:15.644Z,73989.06
2022-08-28T10:52:47.924Z,73987.03
2022-08-28T10:55:25.216Z,73966.78
2022-08-28T10:58:00.622Z,73958.69
2022-08-28T11:00:28.803Z,73950.56
2022-08-28T11:02:59.980Z,73934.38
2022-08-28T11:05:32.509Z,73922.22
2022-08-28T11:08:05.273Z,73910.06
2022-08-28T11:10:32.228Z,73914.13
2022-08-28T11:13:00.063Z,73910.06
2022-08-28T11:15:29.486Z,73906.00
2022-08-28T11:18:19.171Z,73897.91
2022-08-28T11:21:03.342Z,73889.81
2022-08-28T11:23:49.816Z,73873.59
2022-08-28T11:26:30.355Z,73849.28
2022-08-28T11:29:00.405Z,73843.22
2022-08-28T11:31:34.529Z,73837.16
2022-08-28T11:34:02.865Z,73835.13
2022-08-28T11:36:50.264Z,73820.94
2022-08-28T11:39:21.547Z,73812.84
2022-08-28T11:42:10.374Z,73784.47
2022-08-28T11:44:44.026Z,73772.31
2022-08-28T11:47:43.542Z,73768.28
2022-08-28T11:50:24.089Z,73756.13
2022-08-28T11:53:16.901Z,73743.97
2022-08-28T11:55:56.920Z,73735.88
2022-08-28T11:58:54.718Z,73719.66
2022-08-28T12:01:32.410Z,73721.69
2022-08-28T12:04:08.031Z,73709.53
2022-08-28T12:06:54.673Z,73707.50
2022-08-28T12:09:44.487Z,73715.63
2022-08-28T12:12:23.322Z,73703.47
2022-08-28T12:14:56.199Z,73695.38
2022-08-28T12:17:24.510Z,73695.38
2022-08-28T12:20:04.465Z,73695.38
2022-08-28T12:22:52.894Z,73697.38
2022-08-28T12:25:42.304Z,73703.47
2022-08-28T12:28:22.529Z,73703.47
2022-08-28T12:31:48.500Z,73693.34
2022-08-28T12:34:36.603Z,73691.31
2022-08-28T12:37:07.570Z,73675.09
2022-08-28T12:39:34.541Z,73667.00
2022-08-28T12:42:03.532Z,73654.84
2022-08-28T12:44:33.180Z,73650.81
2022-08-28T12:47:00.465Z,73642.72
2022-08-28T12:49:32.887Z,73640.69
2022-08-28T12:52:16.685Z,73630.56
2022-08-28T12:54:48.644Z,73614.34
2022-08-28T12:57:19.889Z,73614.34
2022-08-28T12:59:50.786Z,73604.22
2022-08-28T13:02:29.117Z,73600.16
2022-08-28T13:05:02.015Z,73590.03
2022-08-28T13:07:45.609Z,73586.00
2022-08-28T13:10:25.676Z,73586.00
2022-08-28T13:13:05.853Z,73586.00
2022-08-28T13:15:54.476Z,73590.03
2022-08-28T13:18:40.683Z,73590.03
2022-08-28T13:21:28.705Z,73594.09
2022-08-28T13:24:21.916Z,73579.91
2022-08-28T13:27:08.400Z,73573.84
2022-08-28T13:29:36.967Z,73565.75
2022-08-28T13:32:07.378Z,73565.75
2022-08-28T13:34:37.582Z,73557.63
2022-08-28T13:37:14.634Z,73553.59
2022-08-28T13:39:47.814Z,73533.34
2022-08-28T13:42:18.063Z,73537.38
2022-08-28T13:44:49.423Z,73533.34
2022-08-28T13:47:17.400Z,73529.28
2022-08-28T13:49:44.390Z,73529.28
2022-08-28T13:52:11.729Z,73529.28
2022-08-28T13:54:43.753Z,73539.41
2022-08-28T13:57:13.770Z,73539.41
2022-08-28T13:59:41.163Z,73533.34
2022-08-28T14:02:32.262Z,73521.19
2022-08-28T14:04:59.833Z,73517.13
2022-08-28T14:07:26.813Z,73529.28
2022-08-28T14:09:56.456Z,73551.56
2022-08-28T14:12:32.737Z,73561.69
2022-08-28T14:15:01.187Z,73553.59
2022-08-28T14:17:28.523Z,73545.50
2022-08-28T14:19:55.807Z,73543.47
2022-08-28T14:22:22.731Z,73543.47
2022-08-28T14:24:49.771Z,73535.38
2022-08-28T14:27:17.879Z,73521.19
2022-08-28T14:29:44.731Z,73529.28
2022-08-28T14:32:12.202Z,73525.25
2022-08-28T14:34:39.364Z,73533.34
2022-08-28T14:37:06.551Z,73529.28
2022-08-28T14:39:33.751Z,73521.19
2022-08-28T14:42:01.839Z,73504.97
2022-08-28T14:44:29.148Z,73504.97
2022-08-28T14:46:56.940Z,73504.97
2022-08-28T14:49:25.468Z,73504.97
2022-08-28T14:51:54.256Z,73513.09
2022-08-28T14:54:24.387Z,73515.09
2022-08-28T14:56:53.000Z,73515.09
2022-08-28T14:59:26.356Z,73507.00
2022-08-28T15:01:55.610Z,73521.19
2022-08-28T15:04:24.040Z,73533.34
2022-08-28T15:06:55.880Z,73533.34
2022-08-28T15:09:23.322Z,73539.41
2022-08-28T15:11:50.366Z,73543.47
2022-08-28T15:14:17.740Z,73573.84
2022-08-28T15:16:47.811Z,73606.25
2022-08-28T15:19:18.044Z,73630.56
2022-08-28T15:21:48.402Z,73642.72
2022-08-28T15:24:21.391Z,73650.81
2022-08-28T15:26:48.996Z,73646.75
2022-08-28T15:29:16.608Z,73664.97
2022-08-28T15:31:46.349Z,73667.00
2022-08-28T15:34:22.545Z,73662.97
2022-08-28T15:36:54.663Z,73687.25
2022-08-28T15:39:41.928Z,73693.34
2022-08-28T15:42:10.318Z,73699.41
2022-08-28T15:44:37.508Z,73699.41
2022-08-28T15:47:06.315Z,73707.50
2022-08-28T15:49:46.588Z,73707.50
2022-08-28T15:52:19.089Z,73709.53
2022-08-28T15:54:47.229Z,73715.63
2022-08-28T15:57:14.342Z,73711.56
2022-08-28T15:59:50.076Z,73719.66
2022-08-28T16:02:20.156Z,73727.78
2022-08-28T16:04:48.685Z,73731.81
2022-08-28T16:07:16.455Z,73733.84
2022-08-28T16:09:43.286Z,73756.13
2022-08-28T16:12:10.449Z,73752.06
2022-08-28T16:14:37.276Z,73764.22
2022-08-28T16:17:05.738Z,73784.47
2022-08-28T16:19:41.518Z,73808.78
2022-08-28T16:22:13.100Z,73816.88
2022-08-28T16:24:40.125Z,73841.19
2022-08-28T16:27:09.699Z,73861.44
2022-08-28T16:29:40.122Z,73885.75
2022-08-28T16:32:07.455Z,73903.97
2022-08-28T16:34:34.865Z,73897.91
2022-08-28T16:37:03.854Z,73906.00
2022-08-28T16:39:30.898Z,73920.19
2022-08-28T16:41:57.894Z,73922.22
2022-08-28T16:44:26.693Z,73926.25
2022-08-28T16:46:55.194Z,73934.38
2022-08-28T16:49:23.592Z,73946.53
2022-08-28T16:51:51.471Z,73946.53
2022-08-28T16:54:19.201Z,73950.56
2022-08-28T16:56:46.562Z,73950.56
2022-08-28T16:59:16.628Z,73962.72
2022-08-28T17:01:43.781Z,73974.88
2022-08-28T17:04:12.399Z,73991.09
2022-08-28T17:06:40.172Z,74003.25
2022-08-28T17:09:07.449Z,74007.28
2022-08-28T17:11:34.439Z,74021.47
2022-08-28T17:14:01.683Z,74035.66
2022-08-28T17:16:31.497Z,74043.75
2022-08-28T17:18:59.801Z,74055.91
2022-08-28T17:21:45.849Z,74064.00
2022-08-28T17:24:13.231Z,74080.22
2022-08-28T17:26:41.893Z,74092.38
2022-08-28T17:29:09.452Z,74096.41
2022-08-28T17:31:37.433Z,74108.56
2022-08-28T17:34:07.479Z,74132.88
2022-08-28T17:36:35.888Z,74161.22
2022-08-28T17:39:05.943Z,74201.75
2022-08-28T17:41:33.954Z,74242.25
2022-08-28T17:44:02.391Z,74286.81
2022-08-28T17:46:35.306Z,74343.56
2022-08-28T17:49:05.905Z,74375.97
2022-08-28T17:51:43.573Z,74416.47
2022-08-28T17:54:17.837Z,74452.94
2022-08-28T17:56:46.697Z,74477.25
2022-08-28T17:59:15.293Z,74501.56
2022-08-28T18:01:46.524Z,74525.88
2022-08-28T18:04:21.477Z,74550.19
2022-08-28T18:06:53.663Z,74566.41
2022-08-28T18:09:21.260Z,74578.53
2022-08-28T18:11:48.598Z,74602.84
2022-08-28T18:14:15.568Z,74615.00
2022-08-28T18:16:42.944Z,74623.13
2022-08-28T18:19:11.177Z,74631.22
2022-08-28T18:21:39.288Z,74627.16
2022-08-28T18:24:07.039Z,74627.16
2022-08-28T18:26:34.883Z,74619.06
2022-08-28T18:29:01.889Z,74655.53
2022-08-28T18:31:32.363Z,74659.59
2022-08-28T18:34:01.305Z,74657.56
2022-08-28T18:36:43.479Z,74659.59
2022-08-28T18:39:10.964Z,74659.59
2022-08-28T18:41:43.628Z,74663.63
2022-08-28T18:44:15.869Z,74675.78
2022-08-28T18:46:44.085Z,74687.94
2022-08-28T18:49:13.551Z,74732.53
2022-08-28T18:51:44.094Z,74748.72
2022-08-28T18:54:14.333Z,74769.00
2022-08-28T18:56:44.592Z,74785.19
2022-08-28T18:59:11.913Z,74785.19
2022-08-28T19:01:39.424Z,74789.25
2022-08-28T19:04:07.129Z,74801.41
2022-08-28T19:06:35.015Z,74797.34
2022-08-28T19:09:05.309Z,74799.38
2022-08-28T19:11:33.841Z,74797.34
2022-08-28T19:14:03.619Z,74797.34
2022-08-28T19:16:32.059Z,74801.41
2022-08-28T19:19:03.742Z,74813.56
2022-08-28T19:21:32.898Z,74813.56
2022-08-28T19:24:00.302Z,74825.72
2022-08-28T19:26:29.461Z,74833.81
2022-08-28T19:28:56.946Z,74841.94
2022-08-28T19:31:26.692Z,74841.94
2022-08-28T19:33:56.291Z,74839.91
2022-08-28T19:36:27.183Z,74835.84
2022-08-28T19:38:54.386Z,74833.81
2022-08-28T19:41:22.896Z,74841.94
2022-08-28T19:43:50.556Z,74839.91
2022-08-28T19:46:19.345Z,74850.03
2022-08-28T19:48:48.601Z,74845.97
2022-08-28T19:51:18.235Z,74850.03
2022-08-28T19:53:57.328Z,74858.13
2022-08-28T19:56:31.608Z,74854.09
2022-08-28T19:59:01.155Z,74850.03
2022-08-28T20:01:31.498Z,74845.97
2022-08-28T20:04:00.152Z,74852.06
2022-08-28T20:06:30.360Z,74850.03
2022-08-28T20:08:57.822Z,74845.97
2022-08-28T20:11:29.101Z,74837.88
2022-08-28T20:14:03.922Z,74837.88
2022-08-28T20:16:34.729Z,74833.81
2022-08-28T20:19:03.260Z,74839.91
2022-08-28T20:21:37.898Z,74833.81
2022-08-28T20:24:11.808Z,74839.91
2022-08-28T20:26:39.832Z,74837.88
2022-08-28T20:29:09.385Z,74845.97
2022-08-28T20:31:41.910Z,74841.94
2022-08-28T20:34:11.738Z,74827.75
2022-08-28T20:36:39.518Z,74829.78
2022-08-28T20:39:09.552Z,74829.78
2022-08-28T20:41:39.260Z,74833.81
2022-08-28T20:44:09.399Z,74833.81
2022-08-28T20:46:41.360Z,74837.88
2022-08-28T20:49:11.309Z,74839.91
2022-08-28T20:51:56.961Z,74845.97
2022-08-28T20:54:28.849Z,74839.91
2022-08-28T20:56:57.705Z,74833.81
2022-08-28T20:59:35.489Z,74837.88
2022-08-28T21:02:10.926Z,74833.81
2022-08-28T21:04:39.782Z,74833.81
2022-08-28T21:07:06.750Z,74837.88
2022-08-28T21:09:58.145Z,74829.78
2022-08-28T21:12:21.528Z,74829.78
2022-08-28T21:14:52.479Z,74825.72
2022-08-28T21:17:28.697Z,74819.63
2022-08-28T21:20:03.060Z,74817.63
2022-08-28T21:22:32.916Z,74821.66
2022-08-28T21:25:01.867Z,74817.63
2022-08-28T21:27:30.462Z,74823.69
2022-08-28T21:29:59.462Z,74825.72
2022-08-28T21:32:28.363Z,74829.78
2022-08-28T21:34:55.858Z,74833.81
2022-08-28T21:37:23.542Z,74837.88
2022-08-28T21:39:50.875Z,74835.84
2022-08-28T21:42:18.637Z,74843.94
2022-08-28T21:44:51.771Z,74854.09
2022-08-28T21:47:23.502Z,74854.09
2022-08-28T21:49:55.015Z,74850.03
2022-08-28T21:52:24.898Z,74854.09
2022-08-28T21:54:56.850Z,74874.34
2022-08-28T21:57:24.410Z,74878.41
2022-08-28T21:59:51.322Z,74886.50
2022-08-28T22:02:18.417Z,74892.56
2022-08-28T22:04:45.457Z,74906.75
2022-08-28T22:07:14.139Z,74906.75
2022-08-28T22:09:41.866Z,74906.75
2022-08-28T22:12:10.175Z,74908.78
2022-08-28T22:14:38.249Z,74916.88
2022-08-28T22:17:11.254Z,74922.97
2022-08-28T22:19:39.817Z,74925.00
2022-08-28T22:22:26.185Z,74922.97
2022-08-28T22:24:54.033Z,74931.06
2022-08-28T22:27:21.007Z,74935.13
2022-08-28T22:29:48.113Z,74943.22
2022-08-28T22:32:15.422Z,74943.22
2022-08-28T22:34:45.401Z,74937.16
2022-08-28T22:37:13.166Z,74927.03
2022-08-28T22:39:41.751Z,74935.13
2022-08-28T22:42:09.964Z,74931.06
2022-08-28T22:44:37.538Z,74931.06
2022-08-28T22:47:05.394Z,74943.22
2022-08-28T22:49:32.195Z,74953.38
2022-08-28T22:51:59.353Z,74995.91
2022-08-28T22:54:26.792Z,75014.16
2022-08-28T22:56:53.679Z,75032.38
2022-08-28T22:59:20.857Z,75048.59
2022-08-28T23:01:48.023Z,75058.72
2022-08-28T23:04:16.071Z,75068.84
2022-08-28T23:06:43.125Z,75072.91
2022-08-28T23:09:10.399Z,75078.97
2022-08-28T23:11:38.061Z,75085.06
2022-08-28T23:14:06.155Z,75076.97
2022-08-28T23:16:35.290Z,75072.91
2022-08-28T23:19:13.204Z,75072.91
2022-08-28T23:21:43.981Z,75078.97
2022-08-28T23:24:16.175Z,75076.97
2022-08-28T23:26:45.248Z,75081.00
2022-08-28T23:29:13.037Z,75081.00
2022-08-28T23:31:40.440Z,75076.97
2022-08-28T23:34:08.065Z,75068.84
2022-08-28T23:36:36.526Z,75064.81
2022-08-28T23:39:04.933Z,75058.72
2022-08-28T23:41:33.620Z,75052.66
2022-08-28T23:44:03.151Z,75048.59
2022-08-28T23:46:32.547Z,75052.66
2022-08-28T23:48:59.873Z,75064.81
2022-08-28T23:51:26.740Z,75068.84
2022-08-28T23:53:53.719Z,75064.81
2022-08-28T23:56:20.873Z,75066.81
2022-08-28T23:58:47.767Z,75081.00
